createdAt,value
2023-02-28T00:00:37.814Z,444.81301
2023-02-28T00:05:39.487Z,440.77419
2023-02-28T00:10:40.921Z,432.88889
2023-02-28T00:15:42.408Z,429.03937
2023-02-28T00:20:43.885Z,429.03937
2023-02-28T00:25:45.449Z,432.88889
2023-02-28T00:30:47.185Z,440.77419
2023-02-28T00:35:48.680Z,440.77419
2023-02-28T00:40:50.320Z,444.81301
2023-02-28T00:45:51.907Z,444.81301
2023-02-28T00:50:53.482Z,448.91803
2023-02-28T00:55:55.049Z,440.77419
2023-02-28T01:00:56.509Z,432.88889
2023-02-28T01:05:58.048Z,436.8
2023-02-28T01:10:59.568Z,440.77419
2023-02-28T01:16:01.205Z,432.88889
2023-02-28T01:21:02.718Z,436.8
2023-02-28T01:26:04.177Z,421.51938
2023-02-28T01:31:06.043Z,410.66667
2023-02-28T01:36:07.682Z,407.15789
2023-02-28T01:41:09.411Z,396.94118
2023-02-28T01:46:10.930Z,393.63504
2023-02-28T01:51:12.539Z,393.63504
2023-02-28T01:56:14.379Z,393.63504
2023-02-28T02:01:15.966Z,396.94118
2023-02-28T02:06:17.574Z,387.16547
2023-02-28T02:11:19.216Z,380.87943
2023-02-28T02:16:20.868Z,380.87943
2023-02-28T02:21:22.474Z,380.87943
2023-02-28T02:26:23.987Z,380.87943
2023-02-28T02:31:25.574Z,380.87943
2023-02-28T02:36:27.260Z,368.82759
2023-02-28T02:41:29.013Z,354.66667
2023-02-28T02:46:30.772Z,351.94702
2023-02-28T02:51:32.408Z,354.66667
2023-02-28T02:56:33.976Z,360.21622
2023-02-28T03:01:35.525Z,363.04762
2023-02-28T03:06:37.029Z,360.21622
2023-02-28T03:11:38.532Z,360.21622
2023-02-28T03:16:40.042Z,363.04762
2023-02-28T03:21:41.654Z,338.87179
2023-02-28T03:26:43.250Z,349.26316
2023-02-28T03:31:44.922Z,354.66667
2023-02-28T03:36:46.514Z,351.94702
2023-02-28T03:41:48.230Z,351.94702
2023-02-28T03:46:49.748Z,351.94702
2023-02-28T03:51:51.306Z,351.94702
2023-02-28T03:56:52.906Z,346.61438
2023-02-28T04:01:54.528Z,354.66667
2023-02-28T04:06:56.100Z,351.94702
2023-02-28T04:11:57.669Z,351.94702
2023-02-28T04:16:59.131Z,346.61438
2023-02-28T04:22:00.675Z,344
2023-02-28T04:27:02.223Z,333.87342
2023-02-28T04:32:03.970Z,338.87179
2023-02-28T04:37:13.338Z,344
2023-02-28T04:42:15.312Z,346.61438
2023-02-28T04:47:16.773Z,346.61438
2023-02-28T04:52:18.418Z,354.66667
2023-02-28T04:57:19.998Z,363.04762
2023-02-28T05:02:21.689Z,354.66667
2023-02-28T05:07:23.296Z,357.42282
2023-02-28T05:12:24.993Z,357.42282
2023-02-28T05:17:26.438Z,365.91781
2023-02-28T05:22:27.912Z,357.42282
2023-02-28T05:27:29.513Z,351.94702
2023-02-28T05:32:31.144Z,354.66667
2023-02-28T05:37:32.799Z,344
2023-02-28T05:42:34.493Z,346.61438
2023-02-28T05:47:36.053Z,346.61438
2023-02-28T05:52:37.585Z,349.26316
2023-02-28T05:57:39.154Z,351.94702
2023-02-28T06:02:40.832Z,331.42138
2023-02-28T06:07:42.535Z,338.87179
2023-02-28T06:12:44.115Z,341.41935
2023-02-28T06:17:45.556Z,324.24691
2023-02-28T06:22:47.049Z,333.87342
2023-02-28T06:27:48.529Z,331.42138
2023-02-28T06:32:50.006Z,317.33333
2023-02-28T06:37:51.477Z,338.87179
2023-02-28T06:42:52.951Z,351.94702
2023-02-28T06:47:54.485Z,346.61438
2023-02-28T06:52:56.215Z,344
2023-02-28T06:57:57.792Z,351.94702
2023-02-28T07:02:59.364Z,360.21622
2023-02-28T07:08:00.838Z,349.26316
2023-02-28T07:13:02.288Z,351.94702
2023-02-28T07:18:03.797Z,349.26316
2023-02-28T07:23:05.225Z,336.35669
2023-02-28T07:28:06.959Z,344
2023-02-28T07:33:08.721Z,338.87179
2023-02-28T07:38:10.318Z,344
2023-02-28T07:43:12.090Z,336.35669
2023-02-28T07:48:13.528Z,341.41935
2023-02-28T07:53:15.012Z,346.61438
2023-02-28T07:58:16.764Z,354.66667
2023-02-28T08:03:18.271Z,354.66667
2023-02-28T08:08:19.801Z,360.21622
2023-02-28T08:13:21.269Z,349.26316
2023-02-28T08:18:22.778Z,360.21622
2023-02-28T08:23:24.213Z,377.80282
2023-02-28T08:28:27.367Z,374.76923
2023-02-28T08:33:29.248Z,374.76923
2023-02-28T08:38:30.781Z,338.87179
2023-02-28T08:43:32.338Z,374.76923
2023-02-28T08:48:33.823Z,365.91781
2023-02-28T08:53:35.323Z,363.04762
2023-02-28T08:58:36.942Z,357.42282
2023-02-28T09:03:38.639Z,357.42282
2023-02-28T09:08:40.201Z,360.21622
2023-02-28T09:13:41.905Z,349.26316
2023-02-28T09:18:43.430Z,344
2023-02-28T09:23:44.916Z,344
2023-02-28T09:28:46.473Z,351.94702
2023-02-28T09:33:47.981Z,357.42282
2023-02-28T09:38:49.808Z,354.66667
2023-02-28T09:43:51.464Z,374.76923
2023-02-28T09:48:53.086Z,377.80282
2023-02-28T09:54:01.436Z,354.66667
2023-02-28T09:59:03.559Z,365.91781
2023-02-28T10:04:05.070Z,380.87943
2023-02-28T10:09:06.645Z,384
2023-02-28T10:14:08.761Z,371.77778
2023-02-28T10:19:10.210Z,377.80282
2023-02-28T10:29:14.215Z,403.70149
2023-02-28T10:34:15.670Z,417.84615
2023-02-28T10:39:17.159Z,444.81301
2023-02-28T10:44:18.650Z,448.91803
2023-02-28T10:49:20.245Z,444.81301
2023-02-28T10:54:21.705Z,461.64706
2023-02-28T10:59:23.328Z,466.0339
2023-02-28T11:04:24.825Z,448.91803
2023-02-28T11:09:26.296Z,484.35088
2023-02-28T11:14:27.813Z,489.13274
2023-02-28T11:19:29.256Z,484.35088
2023-02-28T11:24:30.764Z,514.37037
2023-02-28T11:29:32.251Z,509.13761
2023-02-28T11:34:33.782Z,484.35088
2023-02-28T11:39:35.393Z,514.37037
2023-02-28T11:44:37.085Z,470.49573
2023-02-28T11:49:38.675Z,457.33333
2023-02-28T11:54:40.240Z,489.13274
2023-02-28T11:59:41.810Z,514.37037
2023-02-28T12:04:43.300Z,509.13761
2023-02-28T12:09:44.741Z,489.13274
2023-02-28T12:14:46.250Z,509.13761
2023-02-28T12:19:47.721Z,475.03448
2023-02-28T12:24:49.290Z,479.65217
2023-02-28T12:29:50.861Z,461.64706
2023-02-28T12:34:52.450Z,479.65217
2023-02-28T12:39:54.026Z,457.33333
2023-02-28T12:44:55.528Z,484.35088
2023-02-28T12:49:57.284Z,479.65217
2023-02-28T12:54:58.788Z,494
2023-02-28T13:00:00.283Z,504
2023-02-28T13:05:01.944Z,470.49573
2023-02-28T13:10:03.563Z,489.13274
2023-02-28T13:15:05.052Z,466.0339
2023-02-28T13:20:06.657Z,489.13274
2023-02-28T13:25:08.173Z,509.13761
2023-02-28T13:30:09.946Z,498.95495
2023-02-28T13:35:11.722Z,498.95495
2023-02-28T13:40:13.240Z,509.13761
2023-02-28T13:45:14.722Z,525.13208
2023-02-28T13:50:17.736Z,519.70093
2023-02-28T13:55:19.354Z,489.13274
2023-02-28T14:00:20.947Z,519.70093
2023-02-28T14:05:22.436Z,498.95495
2023-02-28T14:10:24.217Z,498.95495
2023-02-28T14:15:25.881Z,470.49573
2023-02-28T14:20:27.381Z,509.13761
2023-02-28T14:25:28.860Z,479.65217
2023-02-28T14:30:30.529Z,509.13761
2023-02-28T14:35:32.371Z,504
2023-02-28T14:40:33.862Z,498.95495
2023-02-28T14:45:35.320Z,470.49573
2023-02-28T14:50:36.773Z,466.0339
2023-02-28T14:55:38.506Z,484.35088
2023-02-28T15:00:40.164Z,475.03448
2023-02-28T15:05:41.867Z,484.35088
2023-02-28T15:10:43.510Z,475.03448
2023-02-28T15:15:58.704Z,479.65217
2023-02-28T15:21:03.136Z,470.49573
2023-02-28T15:26:04.641Z,484.35088
2023-02-28T15:31:06.408Z,461.64706
2023-02-28T15:36:08.323Z,498.95495
2023-02-28T15:41:09.920Z,504
2023-02-28T15:46:11.386Z,448.91803
2023-02-28T15:51:13.413Z,466.0339
2023-02-28T15:56:14.910Z,494
2023-02-28T16:01:16.397Z,453.09091
2023-02-28T16:06:17.894Z,457.33333
2023-02-28T16:11:19.395Z,444.81301
2023-02-28T16:16:21.206Z,461.64706
2023-02-28T16:21:22.894Z,448.91803
2023-02-28T16:26:24.380Z,440.77419
2023-02-28T16:31:26.332Z,436.8
2023-02-28T16:36:27.841Z,440.77419
2023-02-28T16:41:29.621Z,425.25
2023-02-28T16:46:31.551Z,403.70149
2023-02-28T16:51:35.631Z,400.2963
2023-02-28T16:56:37.494Z,400.2963
2023-02-28T17:01:39.299Z,410.66667
2023-02-28T17:06:40.851Z,403.70149
2023-02-28T17:11:42.352Z,396.94118
2023-02-28T17:16:43.957Z,387.16547
2023-02-28T17:21:45.495Z,377.80282
2023-02-28T17:26:47.065Z,396.94118
2023-02-28T17:31:48.739Z,444.81301
2023-02-28T17:36:50.254Z,436.8
2023-02-28T17:41:51.755Z,440.77419
2023-02-28T17:46:53.457Z,448.91803
2023-02-28T17:51:55.121Z,440.77419
2023-02-28T17:56:56.582Z,440.77419
2023-02-28T18:01:58.260Z,436.8
2023-02-28T18:06:59.786Z,440.77419
2023-02-28T18:12:01.232Z,425.25
2023-02-28T18:17:02.857Z,414.22901
2023-02-28T18:22:04.326Z,414.22901
2023-02-28T18:27:05.801Z,421.51938
2023-02-28T18:32:07.369Z,429.03937
2023-02-28T18:37:08.859Z,440.77419
2023-02-28T18:42:10.496Z,421.51938
2023-02-28T18:47:12.062Z,414.22901
2023-02-28T18:52:13.598Z,425.25
2023-02-28T18:57:15.075Z,421.51938
2023-02-28T19:02:16.682Z,417.84615
2023-02-28T19:07:18.124Z,421.51938
2023-02-28T19:12:19.554Z,421.51938
2023-02-28T19:17:21.059Z,417.84615
2023-02-28T19:22:22.665Z,417.84615
2023-02-28T19:27:24.102Z,414.22901
2023-02-28T19:32:25.787Z,414.22901
2023-02-28T19:37:27.403Z,407.15789
2023-02-28T19:42:29.102Z,403.70149
2023-02-28T19:47:30.692Z,396.94118
2023-02-28T19:52:32.190Z,396.94118
2023-02-28T19:57:33.806Z,403.70149
2023-02-28T20:02:35.336Z,400.2963
2023-02-28T20:07:36.908Z,400.2963
2023-02-28T20:12:38.444Z,410.66667
2023-02-28T20:17:40.131Z,410.66667
2023-02-28T20:22:41.758Z,407.15789
2023-02-28T20:27:43.377Z,407.15789
2023-02-28T20:32:44.980Z,414.22901
2023-02-28T20:37:46.477Z,414.22901
2023-02-28T20:42:48.077Z,410.66667
2023-02-28T20:47:49.577Z,400.2963
2023-02-28T20:52:51.062Z,396.94118
2023-02-28T20:57:52.567Z,396.94118
2023-02-28T21:02:54.106Z,390.37681
2023-02-28T21:07:55.640Z,396.94118
2023-02-28T21:12:57.105Z,387.16547
2023-02-28T21:17:58.666Z,396.94118
2023-02-28T21:23:00.252Z,396.94118
2023-02-28T21:28:01.774Z,380.87943
2023-02-28T21:33:03.294Z,393.63504
2023-02-28T21:38:04.907Z,387.16547
2023-02-28T21:43:06.434Z,390.37681
2023-02-28T21:48:07.943Z,387.16547
2023-02-28T21:53:09.365Z,380.87943
2023-02-28T21:58:10.856Z,387.16547
2023-02-28T22:03:12.364Z,393.63504
2023-02-28T22:08:14.015Z,384
2023-02-28T22:13:15.541Z,393.63504
2023-02-28T22:18:17.061Z,390.37681
2023-02-28T22:23:19.171Z,393.63504
2023-02-28T22:28:20.829Z,384
2023-02-28T22:33:22.583Z,396.94118
2023-02-28T22:38:24.079Z,407.15789
2023-02-28T22:43:25.663Z,407.15789
2023-02-28T22:48:27.237Z,403.70149
2023-02-28T22:53:28.792Z,396.94118
2023-02-28T22:58:30.305Z,400.2963
2023-02-28T23:03:31.931Z,390.37681
2023-02-28T23:08:33.408Z,393.63504
2023-02-28T23:13:34.905Z,393.63504
2023-02-28T23:18:36.581Z,387.16547
2023-02-28T23:23:38.164Z,384
2023-02-28T23:28:39.608Z,384
2023-02-28T23:33:41.218Z,390.37681
2023-02-28T23:38:42.778Z,380.87943
2023-02-28T23:43:44.272Z,380.87943
2023-02-28T23:48:45.801Z,384
2023-02-28T23:53:47.327Z,374.76923
2023-02-28T23:58:48.819Z,387.16547
